Pittsburgh, Pennsylvania
Traffic Map
Current Weather Conditions
Pittsburgh, Pennsylvania
Overcast
Overcast
17°
Feels Like: 17°
Wind Chill: 17° Ceiling: 4700
Heat Index: 17° Visibility: 10mi
Dew Point: 13° Wind: 0mph
Humidity: 78% Direction: ° ()
Pressure: 30.13in Gusts: 0mph
Raw Report DataKAGC 192153Z AUTO 00000KT 10SM OVC047 17/13 A3013 RMK AO2 SLP208 T01670128
Traffic Incident Summary
Active as of:
Severity:
Category:
InformationThere was an issue retrieving the traffic information for this location. Please try a different location or try again shortly.
Advertisements